createdAt,value
2023-03-31T00:00:58.400Z,4.99
2023-03-31T00:01:58.105Z,5.00
2023-03-31T00:02:58.184Z,5.00
2023-03-31T00:03:58.432Z,5.05
2023-03-31T00:04:58.195Z,5.07
2023-03-31T00:05:58.478Z,5.11
2023-03-31T00:06:58.190Z,5.18
2023-03-31T00:07:58.211Z,5.23
2023-03-31T00:08:58.223Z,5.29
2023-03-31T00:10:10.276Z,5.30
2023-03-31T00:10:58.288Z,5.29
2023-03-31T00:11:58.282Z,5.26
2023-03-31T00:12:58.296Z,5.23
2023-03-31T00:13:58.313Z,5.25
2023-03-31T00:14:58.326Z,5.20
2023-03-31T00:15:58.422Z,5.15
2023-03-31T00:16:58.396Z,5.17
2023-03-31T00:17:58.437Z,5.18
2023-03-31T00:18:58.395Z,5.18
2023-03-31T00:19:58.411Z,5.18
2023-03-31T00:20:59.953Z,5.18
2023-03-31T00:21:58.448Z,5.20
2023-03-31T00:22:58.483Z,5.15
2023-03-31T00:23:58.501Z,5.05
2023-03-31T00:24:58.496Z,5.04
2023-03-31T00:25:58.543Z,5.07
2023-03-31T00:26:58.534Z,5.07
2023-03-31T00:27:58.553Z,5.07
2023-03-31T00:28:58.565Z,5.10
2023-03-31T00:29:58.584Z,5.10
2023-03-31T00:30:58.623Z,5.11
2023-03-31T00:31:58.647Z,5.10
2023-03-31T00:32:58.678Z,5.05
2023-03-31T00:33:58.655Z,4.99
2023-03-31T00:34:58.659Z,4.93
2023-03-31T00:35:58.732Z,4.93
2023-03-31T00:36:58.693Z,4.89
2023-03-31T00:37:58.716Z,4.84
2023-03-31T00:38:58.747Z,4.84
2023-03-31T00:39:58.750Z,4.82
2023-03-31T00:40:58.777Z,4.82
2023-03-31T00:41:58.792Z,4.82
2023-03-31T00:42:58.797Z,4.87
2023-03-31T00:43:58.819Z,4.87
2023-03-31T00:44:58.835Z,4.87
2023-03-31T00:45:58.916Z,4.84
2023-03-31T00:46:58.868Z,4.80
2023-03-31T00:47:58.933Z,4.68
2023-03-31T00:48:58.906Z,4.58
2023-03-31T00:49:58.929Z,4.58
2023-03-31T00:50:58.963Z,4.67
2023-03-31T00:51:58.973Z,4.66
2023-03-31T00:52:58.982Z,4.74
2023-03-31T00:53:59.009Z,4.74
2023-03-31T00:54:59.012Z,4.74
2023-03-31T00:55:59.066Z,4.74
2023-03-31T00:56:59.071Z,4.71
2023-03-31T00:57:59.090Z,4.68
2023-03-31T00:58:59.124Z,4.73
2023-03-31T00:59:59.201Z,4.75
2023-03-31T01:00:59.151Z,4.77
2023-03-31T01:01:59.253Z,4.77
2023-03-31T01:02:59.245Z,4.73
2023-03-31T01:03:59.380Z,4.70
2023-03-31T01:04:59.273Z,4.67
2023-03-31T01:05:59.263Z,4.63
2023-03-31T01:06:59.250Z,4.63
2023-03-31T01:07:59.261Z,4.62
2023-03-31T01:08:59.278Z,4.58
2023-03-31T01:09:59.296Z,4.49
2023-03-31T01:10:59.328Z,4.49
2023-03-31T01:11:59.323Z,4.42
2023-03-31T01:12:59.347Z,4.40
2023-03-31T01:13:59.353Z,4.38
2023-03-31T01:14:59.382Z,4.37
2023-03-31T01:15:59.403Z,4.38
2023-03-31T01:16:59.499Z,4.32
2023-03-31T01:17:59.481Z,4.32
2023-03-31T01:18:59.415Z,4.32
2023-03-31T01:19:59.452Z,4.32
2023-03-31T01:20:59.477Z,4.30
2023-03-31T01:21:59.481Z,4.26
2023-03-31T01:22:59.561Z,4.24
2023-03-31T01:23:59.519Z,4.30
2023-03-31T01:24:59.534Z,4.37
2023-03-31T01:25:59.544Z,4.42
2023-03-31T01:26:59.562Z,4.44
2023-03-31T01:27:59.586Z,4.44
2023-03-31T01:28:59.602Z,4.42
2023-03-31T01:29:59.614Z,4.41
2023-03-31T01:30:59.687Z,4.35
2023-03-31T01:31:59.637Z,4.38
2023-03-31T01:32:59.676Z,4.41
2023-03-31T01:33:59.685Z,4.44
2023-03-31T01:34:59.689Z,4.49
2023-03-31T01:35:59.851Z,4.50
2023-03-31T01:36:59.733Z,4.50
2023-03-31T01:37:59.753Z,4.55
2023-03-31T01:38:59.764Z,4.56
2023-03-31T01:39:59.812Z,4.56
2023-03-31T01:40:59.813Z,4.58
2023-03-31T01:41:59.816Z,4.56
2023-03-31T01:42:59.875Z,4.56
2023-03-31T01:43:59.854Z,4.53
2023-03-31T01:44:59.869Z,4.55
2023-03-31T01:46:00.050Z,4.45
2023-03-31T01:46:59.888Z,4.44
2023-03-31T01:47:59.937Z,4.42
2023-03-31T01:48:59.925Z,4.41
2023-03-31T01:49:59.946Z,4.40
2023-03-31T01:50:59.978Z,4.38
2023-03-31T01:52:00.112Z,4.31
2023-03-31T01:53:00.009Z,4.32
2023-03-31T01:54:00.033Z,4.34
2023-03-31T01:55:00.044Z,4.37
2023-03-31T01:56:00.125Z,4.38
2023-03-31T01:57:00.129Z,4.42
2023-03-31T01:58:00.150Z,4.50
2023-03-31T01:59:00.117Z,4.50
2023-03-31T02:00:00.158Z,4.45
2023-03-31T02:01:00.173Z,4.41
2023-03-31T02:02:00.244Z,4.48
2023-03-31T02:03:00.261Z,4.52
2023-03-31T02:04:00.275Z,4.56
2023-03-31T02:05:00.215Z,4.67
2023-03-31T02:06:00.258Z,4.74
2023-03-31T02:07:00.263Z,4.82
2023-03-31T02:08:00.270Z,4.87
2023-03-31T02:09:00.292Z,4.93
2023-03-31T02:10:00.306Z,4.99
2023-03-31T02:11:00.337Z,5.04
2023-03-31T02:12:00.339Z,5.04
2023-03-31T02:13:00.357Z,5.05
2023-03-31T02:14:00.374Z,5.04
2023-03-31T02:15:00.388Z,4.97
2023-03-31T02:16:00.443Z,4.94
2023-03-31T02:17:00.417Z,4.92
2023-03-31T02:18:00.473Z,4.93
2023-03-31T02:19:00.458Z,4.96
2023-03-31T02:20:00.478Z,5.00
2023-03-31T02:21:00.510Z,5.05
2023-03-31T02:22:00.517Z,5.04
2023-03-31T02:23:00.552Z,5.08
2023-03-31T02:24:00.552Z,5.10
2023-03-31T02:25:00.565Z,5.12
2023-03-31T02:26:00.603Z,5.21
2023-03-31T02:27:00.607Z,5.29
2023-03-31T02:28:00.624Z,5.30
2023-03-31T02:29:00.640Z,5.32
2023-03-31T02:30:00.661Z,5.33
2023-03-31T02:31:00.694Z,5.35
2023-03-31T02:32:00.888Z,5.39
2023-03-31T02:33:00.742Z,5.39
2023-03-31T02:34:00.724Z,5.43
2023-03-31T02:35:00.756Z,5.46
2023-03-31T02:36:00.866Z,5.47
2023-03-31T02:37:00.774Z,5.59
2023-03-31T02:38:00.796Z,5.66
2023-03-31T02:39:00.808Z,5.68
2023-03-31T02:40:00.830Z,5.69
2023-03-31T02:41:00.868Z,5.76
2023-03-31T02:42:00.869Z,5.84
2023-03-31T02:43:00.880Z,5.89
2023-03-31T02:44:00.914Z,5.90
2023-03-31T02:45:00.918Z,5.94
2023-03-31T02:46:00.969Z,5.99
2023-03-31T02:47:00.954Z,6.02
2023-03-31T02:48:01.029Z,6.04
2023-03-31T02:49:00.988Z,6.05
2023-03-31T02:50:01.007Z,6.08
2023-03-31T02:51:01.042Z,6.09
2023-03-31T02:52:01.050Z,6.09
2023-03-31T02:53:01.060Z,6.11
2023-03-31T02:54:01.083Z,6.14
2023-03-31T02:55:01.099Z,6.14
2023-03-31T02:56:01.134Z,6.17
2023-03-31T02:57:01.166Z,6.20
2023-03-31T02:58:01.155Z,6.26
2023-03-31T02:59:01.171Z,6.31
2023-03-31T03:00:01.209Z,6.35
2023-03-31T03:01:01.268Z,6.39
2023-03-31T03:02:01.274Z,6.42
2023-03-31T03:03:01.330Z,6.44
2023-03-31T03:04:01.268Z,6.49
2023-03-31T03:05:01.279Z,6.52
2023-03-31T03:06:02.590Z,6.59
2023-03-31T03:07:01.321Z,6.67
2023-03-31T03:08:01.343Z,6.69
2023-03-31T03:09:01.354Z,6.78
2023-03-31T03:10:01.372Z,6.81
2023-03-31T03:11:01.410Z,6.82
2023-03-31T03:12:01.427Z,6.85
2023-03-31T03:13:01.422Z,6.85
2023-03-31T03:14:01.446Z,6.87
2023-03-31T03:15:01.458Z,6.87
2023-03-31T03:16:01.495Z,6.87
2023-03-31T03:17:01.534Z,6.88
2023-03-31T03:18:01.527Z,6.92
2023-03-31T03:19:01.517Z,6.93
2023-03-31T03:20:01.554Z,6.92
2023-03-31T03:21:01.588Z,6.93
2023-03-31T03:22:01.635Z,6.96
2023-03-31T03:23:01.614Z,6.99
2023-03-31T03:24:01.620Z,7.02
2023-03-31T03:25:01.630Z,7.07
2023-03-31T03:26:01.672Z,7.11
2023-03-31T03:27:01.677Z,7.14
2023-03-31T03:28:01.685Z,7.14
2023-03-31T03:29:01.726Z,7.13
2023-03-31T03:30:01.728Z,7.14
2023-03-31T03:31:01.772Z,7.14
2023-03-31T03:32:01.750Z,7.13
2023-03-31T03:33:01.786Z,7.17
2023-03-31T03:34:01.792Z,7.15
2023-03-31T03:35:01.805Z,7.17
2023-03-31T03:36:01.889Z,7.17
2023-03-31T03:37:01.837Z,7.14
2023-03-31T03:38:01.860Z,7.15
2023-03-31T03:39:01.878Z,7.13
2023-03-31T03:40:01.902Z,7.14
2023-03-31T03:41:01.969Z,7.15
2023-03-31T03:42:01.925Z,7.15
2023-03-31T03:43:01.952Z,7.15
2023-03-31T03:44:01.974Z,7.15
2023-03-31T03:45:02.008Z,7.15
2023-03-31T03:46:02.055Z,7.18
2023-03-31T03:47:02.022Z,7.17
2023-03-31T03:48:02.127Z,7.17
2023-03-31T03:49:02.063Z,7.20
2023-03-31T03:50:02.080Z,7.21
2023-03-31T03:51:02.119Z,7.25
2023-03-31T03:52:02.100Z,7.25
2023-03-31T03:53:02.124Z,7.28
2023-03-31T03:54:02.220Z,7.32
2023-03-31T03:55:02.184Z,7.29
2023-03-31T03:56:02.180Z,7.29
2023-03-31T03:57:02.189Z,7.29
2023-03-31T03:58:02.206Z,7.28
2023-03-31T03:59:02.224Z,7.28
2023-03-31T04:00:02.249Z,7.25
2023-03-31T04:01:02.280Z,7.24
2023-03-31T04:02:02.319Z,7.23
2023-03-31T04:03:02.361Z,7.23
2023-03-31T04:04:02.303Z,7.25
2023-03-31T04:05:02.398Z,7.25
2023-03-31T04:06:02.360Z,7.28
2023-03-31T04:07:02.349Z,7.28
2023-03-31T04:08:02.391Z,7.28
2023-03-31T04:09:02.378Z,7.25
2023-03-31T04:10:02.397Z,7.28
2023-03-31T04:11:02.434Z,7.25
2023-03-31T04:12:02.424Z,7.25
2023-03-31T04:13:02.453Z,7.28
2023-03-31T04:14:02.462Z,7.29
2023-03-31T04:15:02.476Z,7.31
2023-03-31T04:16:02.559Z,7.38
2023-03-31T04:17:02.516Z,7.45
2023-03-31T04:18:02.609Z,7.48
2023-03-31T04:19:02.558Z,7.51
2023-03-31T04:20:02.563Z,7.53
2023-03-31T04:21:02.609Z,7.56
2023-03-31T04:22:02.727Z,7.58
2023-03-31T04:23:02.638Z,7.58
2023-03-31T04:24:02.643Z,7.60
2023-03-31T04:25:02.661Z,7.61
2023-03-31T04:26:02.814Z,7.63
2023-03-31T04:27:02.889Z,7.67
2023-03-31T04:28:02.709Z,7.72
2023-03-31T04:29:02.728Z,7.75
2023-03-31T04:30:02.751Z,7.76
2023-03-31T04:31:02.835Z,7.77
2023-03-31T04:32:02.850Z,7.77
2023-03-31T04:33:02.973Z,7.79
2023-03-31T04:34:02.887Z,7.83
2023-03-31T04:35:02.966Z,7.83
2023-03-31T04:36:02.880Z,7.87
2023-03-31T04:37:02.856Z,7.85
2023-03-31T04:38:02.866Z,7.85
2023-03-31T04:39:02.873Z,7.87
2023-03-31T04:40:02.891Z,7.85
2023-03-31T04:41:02.928Z,7.85
2023-03-31T04:42:02.926Z,7.82
2023-03-31T04:43:02.948Z,7.82
2023-03-31T04:44:02.960Z,7.80
2023-03-31T04:45:02.975Z,7.80
2023-03-31T04:46:03.103Z,7.79
2023-03-31T04:47:03.375Z,7.79
2023-03-31T04:48:03.069Z,7.80
2023-03-31T04:49:03.069Z,7.76
2023-03-31T04:50:03.068Z,7.77
2023-03-31T04:51:03.108Z,7.77
2023-03-31T04:52:03.100Z,7.77
2023-03-31T04:53:03.126Z,7.79
2023-03-31T04:54:03.132Z,7.79
2023-03-31T04:55:03.163Z,7.77
2023-03-31T04:56:03.204Z,7.77
2023-03-31T04:57:03.246Z,7.80
2023-03-31T04:58:03.190Z,7.82
2023-03-31T04:59:03.210Z,7.82
2023-03-31T05:00:03.234Z,7.82
2023-03-31T05:01:03.420Z,7.85
2023-03-31T05:02:03.304Z,7.87
2023-03-31T05:03:03.371Z,7.87
2023-03-31T05:04:03.304Z,7.87
2023-03-31T05:05:03.324Z,7.87
2023-03-31T05:06:03.482Z,7.88
2023-03-31T05:07:03.359Z,7.88
2023-03-31T05:08:03.370Z,7.88
2023-03-31T05:09:03.392Z,7.88
2023-03-31T05:10:03.408Z,7.90
2023-03-31T05:11:03.465Z,7.90
2023-03-31T05:12:03.457Z,7.91
2023-03-31T05:13:03.468Z,7.91
2023-03-31T05:14:03.490Z,7.91
2023-03-31T05:15:03.498Z,7.90
2023-03-31T05:16:03.861Z,7.93
2023-03-31T05:17:03.572Z,7.91
2023-03-31T05:18:03.561Z,7.91
2023-03-31T05:19:03.584Z,7.93
2023-03-31T05:20:03.597Z,7.94
2023-03-31T05:21:03.647Z,7.94
2023-03-31T05:22:03.632Z,7.97
2023-03-31T05:23:03.651Z,8.03
2023-03-31T05:24:03.665Z,8.06
2023-03-31T05:25:03.687Z,8.09
2023-03-31T05:26:03.995Z,8.10
2023-03-31T05:27:03.719Z,8.12
2023-03-31T05:28:03.754Z,8.15
2023-03-31T05:29:03.754Z,8.15
2023-03-31T05:30:03.789Z,8.16
2023-03-31T05:31:03.821Z,8.18
2023-03-31T05:32:03.922Z,8.18
2023-03-31T05:33:03.870Z,8.18
2023-03-31T05:34:03.845Z,8.19
2023-03-31T05:35:03.882Z,8.20
2023-03-31T05:36:04.167Z,8.23
2023-03-31T05:37:03.895Z,8.24
2023-03-31T05:38:03.908Z,8.27
2023-03-31T05:39:03.945Z,8.26
2023-03-31T05:40:04.019Z,8.27
2023-03-31T05:41:03.999Z,8.31
2023-03-31T05:42:03.979Z,8.34
2023-03-31T05:43:03.999Z,8.37
2023-03-31T05:44:04.013Z,8.41
2023-03-31T05:45:04.041Z,8.44
2023-03-31T05:46:04.367Z,8.45
2023-03-31T05:47:04.062Z,8.46
2023-03-31T05:48:04.109Z,8.46
2023-03-31T05:49:04.101Z,8.46
2023-03-31T05:50:04.117Z,8.48
2023-03-31T05:51:04.165Z,8.51
2023-03-31T05:52:04.152Z,8.53
2023-03-31T05:53:04.175Z,8.53
2023-03-31T05:54:04.179Z,8.51
2023-03-31T05:55:04.215Z,8.51
2023-03-31T05:56:04.410Z,8.51
2023-03-31T05:57:04.300Z,8.49
2023-03-31T05:58:04.238Z,8.51
2023-03-31T05:59:05.266Z,8.53
2023-03-31T06:00:04.295Z,8.55
2023-03-31T06:01:04.664Z,8.56
2023-03-31T06:02:04.380Z,8.58
2023-03-31T06:03:04.468Z,8.58
2023-03-31T06:04:04.420Z,8.61
2023-03-31T06:05:04.384Z,8.61
2023-03-31T06:06:04.410Z,8.61
2023-03-31T06:07:04.415Z,8.61
2023-03-31T06:08:04.423Z,8.58
2023-03-31T06:09:04.448Z,8.58
2023-03-31T06:10:04.474Z,8.58
2023-03-31T06:11:04.774Z,8.56
2023-03-31T06:12:04.497Z,8.55
2023-03-31T06:13:04.525Z,8.55
2023-03-31T06:14:04.536Z,8.55
2023-03-31T06:15:04.566Z,8.52
2023-03-31T06:16:04.650Z,8.52
2023-03-31T06:17:04.612Z,8.52
2023-03-31T06:18:04.635Z,8.53
2023-03-31T06:19:04.615Z,8.53
2023-03-31T06:20:15.961Z,8.53
2023-03-31T06:21:04.893Z,8.55
2023-03-31T06:22:04.661Z,8.55
2023-03-31T06:23:04.685Z,8.53
2023-03-31T06:24:04.693Z,8.53
2023-03-31T06:25:04.710Z,8.53
2023-03-31T06:26:04.775Z,8.53
2023-03-31T06:27:04.744Z,8.55
2023-03-31T06:28:04.763Z,8.55
2023-03-31T06:29:04.773Z,8.53
2023-03-31T06:30:05.001Z,8.55
2023-03-31T06:31:05.131Z,8.52
2023-03-31T06:32:04.919Z,8.53
2023-03-31T06:33:04.869Z,8.51
2023-03-31T06:34:04.851Z,8.51
2023-03-31T06:35:04.878Z,8.51
2023-03-31T06:36:04.926Z,8.49
2023-03-31T06:37:04.930Z,8.48
2023-03-31T06:38:04.915Z,8.48
2023-03-31T06:39:04.953Z,8.48
2023-03-31T06:40:04.953Z,8.46
2023-03-31T06:41:05.151Z,8.45
2023-03-31T06:42:04.985Z,8.48
2023-03-31T06:43:05.015Z,8.46
2023-03-31T06:44:05.164Z,8.45
2023-03-31T06:45:05.042Z,8.46
2023-03-31T06:46:05.234Z,8.46
2023-03-31T06:47:05.099Z,8.46
2023-03-31T06:48:05.133Z,8.45
2023-03-31T06:49:05.128Z,8.46
2023-03-31T06:50:05.138Z,8.45
2023-03-31T06:51:05.182Z,8.46
2023-03-31T06:52:05.164Z,8.48
2023-03-31T06:53:05.184Z,8.48
2023-03-31T06:54:05.190Z,8.48
2023-03-31T06:55:05.218Z,8.48
2023-03-31T06:56:05.485Z,8.46
2023-03-31T06:57:05.269Z,8.48
2023-03-31T06:58:05.369Z,8.48
2023-03-31T06:59:05.282Z,8.49
2023-03-31T07:00:05.295Z,8.49
2023-03-31T07:01:05.842Z,8.51
2023-03-31T07:02:05.376Z,8.49
2023-03-31T07:03:05.443Z,8.51
2023-03-31T07:04:05.363Z,8.52
2023-03-31T07:05:05.380Z,8.51
2023-03-31T07:06:05.430Z,8.53
2023-03-31T07:07:05.407Z,8.53
2023-03-31T07:08:05.415Z,8.53
2023-03-31T07:09:05.438Z,8.55
2023-03-31T07:10:05.452Z,8.55
2023-03-31T07:11:05.901Z,8.53
2023-03-31T07:12:05.485Z,8.55
2023-03-31T07:13:05.799Z,8.56
2023-03-31T07:14:05.522Z,8.56
2023-03-31T07:15:05.538Z,8.58
2023-03-31T07:16:05.882Z,8.56
2023-03-31T07:17:05.574Z,8.60
2023-03-31T07:18:05.611Z,8.61
2023-03-31T07:19:05.633Z,8.63
2023-03-31T07:20:05.623Z,8.64
2023-03-31T07:21:09.007Z,8.64
2023-03-31T07:22:05.658Z,8.69
2023-03-31T07:23:05.696Z,8.71
2023-03-31T07:24:05.701Z,8.71
2023-03-31T07:25:05.730Z,8.71
2023-03-31T07:26:05.753Z,8.71
2023-03-31T07:27:05.766Z,8.71
2023-03-31T07:28:05.802Z,8.71
2023-03-31T07:29:05.811Z,8.71
2023-03-31T07:30:05.817Z,8.73
2023-03-31T07:31:06.028Z,8.78
2023-03-31T07:32:05.912Z,8.79
2023-03-31T07:33:05.913Z,8.84
2023-03-31T07:34:05.881Z,8.87
2023-03-31T07:35:05.908Z,8.92
2023-03-31T07:36:12.532Z,8.95
2023-03-31T07:37:05.931Z,9.00
2023-03-31T07:38:05.954Z,9.06
2023-03-31T07:39:05.964Z,9.10
2023-03-31T07:40:06.000Z,9.13
2023-03-31T07:41:09.648Z,9.16
2023-03-31T07:42:06.006Z,9.19
2023-03-31T07:43:06.018Z,9.22
2023-03-31T07:44:06.041Z,9.26
2023-03-31T07:45:06.065Z,9.34
2023-03-31T07:46:06.401Z,9.43
2023-03-31T07:47:06.075Z,9.47
2023-03-31T07:48:06.149Z,9.44
2023-03-31T07:49:06.239Z,9.46
2023-03-31T07:50:06.144Z,9.46
2023-03-31T07:51:06.328Z,9.50
2023-03-31T07:52:06.170Z,9.48
2023-03-31T07:53:06.226Z,9.47
2023-03-31T07:54:06.224Z,9.51
2023-03-31T07:55:06.224Z,9.54
2023-03-31T07:56:06.364Z,9.59
2023-03-31T07:57:06.332Z,9.68
2023-03-31T07:58:06.270Z,9.68
2023-03-31T07:59:06.285Z,9.72
2023-03-31T08:00:06.310Z,9.74
2023-03-31T08:01:06.661Z,9.79
2023-03-31T08:02:06.379Z,9.74
2023-03-31T08:03:06.380Z,9.74
2023-03-31T08:04:06.389Z,9.62
2023-03-31T08:05:06.364Z,9.55
2023-03-31T08:06:06.669Z,9.51
2023-03-31T08:07:06.399Z,9.50
2023-03-31T08:08:06.421Z,9.51
2023-03-31T08:09:06.433Z,9.50
2023-03-31T08:10:06.466Z,9.48
2023-03-31T08:11:06.694Z,9.47
2023-03-31T08:12:06.498Z,9.46
2023-03-31T08:13:06.509Z,9.46
2023-03-31T08:14:06.524Z,9.43
2023-03-31T08:15:06.534Z,9.43
2023-03-31T08:16:06.851Z,9.44
2023-03-31T08:17:06.575Z,9.44
2023-03-31T08:18:06.606Z,9.48
2023-03-31T08:19:06.607Z,9.47
2023-03-31T08:20:08.012Z,9.48
2023-03-31T08:21:06.848Z,9.48
2023-03-31T08:22:06.660Z,9.54
2023-03-31T08:23:06.719Z,9.61
2023-03-31T08:24:06.698Z,9.65
2023-03-31T08:25:06.717Z,9.68
2023-03-31T08:26:06.966Z,9.69
2023-03-31T08:27:11.879Z,9.72
2023-03-31T08:28:06.784Z,9.77
2023-03-31T08:29:06.786Z,9.84
2023-03-31T08:30:06.830Z,9.89
2023-03-31T08:31:06.840Z,9.94
2023-03-31T08:32:07.074Z,9.91
2023-03-31T08:33:06.906Z,9.86
2023-03-31T08:34:06.867Z,9.86
2023-03-31T08:35:06.903Z,9.91
2023-03-31T08:36:07.147Z,9.86
2023-03-31T08:37:06.918Z,9.89
2023-03-31T08:38:06.932Z,9.95
2023-03-31T08:39:06.940Z,10.01
2023-03-31T08:40:06.963Z,10.05
2023-03-31T08:41:06.983Z,10.12
2023-03-31T08:42:09.377Z,10.17
2023-03-31T08:43:07.044Z,10.13
2023-03-31T08:44:07.012Z,10.17
2023-03-31T08:45:07.045Z,10.25
2023-03-31T08:46:07.238Z,10.31
2023-03-31T08:47:07.052Z,10.30
2023-03-31T08:48:07.496Z,10.34
2023-03-31T08:49:07.078Z,10.37
2023-03-31T08:50:07.111Z,10.33
2023-03-31T08:51:07.419Z,10.37
2023-03-31T08:52:07.158Z,10.44
2023-03-31T08:53:07.155Z,10.59
2023-03-31T08:54:07.172Z,10.78
2023-03-31T08:55:07.180Z,10.89
2023-03-31T08:56:07.514Z,10.96
2023-03-31T08:57:07.221Z,11.02
2023-03-31T08:58:07.239Z,10.94
2023-03-31T08:59:07.298Z,10.92
2023-03-31T09:00:07.446Z,10.87
2023-03-31T09:01:07.551Z,10.86
2023-03-31T09:02:07.333Z,10.81
2023-03-31T09:03:07.621Z,10.82
2023-03-31T09:04:09.380Z,10.86
2023-03-31T09:05:07.325Z,10.87
2023-03-31T09:06:07.383Z,10.84
2023-03-31T09:07:07.354Z,10.81
2023-03-31T09:08:07.388Z,10.79
2023-03-31T09:09:07.379Z,10.84
2023-03-31T09:10:07.428Z,10.84
2023-03-31T09:11:07.436Z,10.86
2023-03-31T09:12:07.417Z,10.89
2023-03-31T09:13:07.465Z,10.89
2023-03-31T09:14:07.451Z,10.94
2023-03-31T09:15:07.472Z,10.96
2023-03-31T09:16:07.713Z,11.00
2023-03-31T09:17:07.565Z,11.05
2023-03-31T09:18:07.546Z,11.14
2023-03-31T09:19:07.535Z,11.18
2023-03-31T09:20:07.566Z,11.18
2023-03-31T09:21:08.087Z,11.08
2023-03-31T09:22:07.578Z,10.99
2023-03-31T09:23:07.591Z,11.07
2023-03-31T09:24:07.628Z,11.10
2023-03-31T09:25:07.620Z,11.11
2023-03-31T09:26:07.803Z,11.11
2023-03-31T09:27:07.649Z,11.14
2023-03-31T09:28:07.674Z,11.19
2023-03-31T09:29:07.679Z,11.25
2023-03-31T09:30:07.699Z,11.27
2023-03-31T09:31:07.768Z,11.30
2023-03-31T09:32:07.755Z,11.37
2023-03-31T09:33:07.935Z,11.43
2023-03-31T09:34:07.758Z,11.48
2023-03-31T09:35:07.789Z,11.54
2023-03-31T09:36:08.026Z,11.54
2023-03-31T09:37:07.813Z,11.63
2023-03-31T09:38:07.817Z,11.66
2023-03-31T09:39:07.830Z,11.66
2023-03-31T09:40:07.969Z,11.69
2023-03-31T09:41:07.952Z,11.70
2023-03-31T09:42:07.939Z,11.69
2023-03-31T09:43:07.912Z,11.73
2023-03-31T09:44:07.972Z,11.77
2023-03-31T09:45:07.983Z,11.81
2023-03-31T09:46:10.058Z,11.87
2023-03-31T09:47:11.174Z,11.94
2023-03-31T09:48:08.015Z,11.95
2023-03-31T09:49:08.037Z,11.99
2023-03-31T09:50:08.125Z,12.00
2023-03-31T09:51:08.214Z,12.02
2023-03-31T09:52:08.020Z,12.02
2023-03-31T09:53:08.031Z,12.06
2023-03-31T09:54:08.086Z,12.15
2023-03-31T09:55:08.074Z,12.20
2023-03-31T09:56:08.612Z,12.22
2023-03-31T09:57:08.133Z,12.24
2023-03-31T09:58:08.146Z,12.28
2023-03-31T09:59:08.120Z,12.27
2023-03-31T10:00:08.162Z,12.32
2023-03-31T10:01:08.429Z,12.36
2023-03-31T10:02:08.303Z,12.36
2023-03-31T10:03:08.442Z,12.27
2023-03-31T10:04:08.258Z,12.27
2023-03-31T10:05:08.215Z,12.22
2023-03-31T10:06:08.262Z,12.29
2023-03-31T10:07:08.263Z,12.27
2023-03-31T10:08:08.266Z,12.39
2023-03-31T10:09:08.275Z,12.50
2023-03-31T10:10:08.294Z,12.65
2023-03-31T10:11:08.772Z,12.75
2023-03-31T10:12:08.329Z,12.83
2023-03-31T10:13:08.364Z,12.93
2023-03-31T10:14:08.353Z,13.00
2023-03-31T10:15:08.405Z,13.04
2023-03-31T10:16:08.516Z,13.22
2023-03-31T10:17:08.403Z,13.30
2023-03-31T10:18:08.511Z,13.22
2023-03-31T10:19:08.431Z,13.15
2023-03-31T10:20:08.461Z,13.15
2023-03-31T10:21:08.661Z,13.15
2023-03-31T10:22:08.479Z,13.13
2023-03-31T10:23:08.511Z,13.18
2023-03-31T10:24:08.512Z,12.98
2023-03-31T10:25:08.509Z,12.91
2023-03-31T10:26:08.553Z,12.83
2023-03-31T10:27:08.536Z,12.78
2023-03-31T10:28:08.559Z,12.80
2023-03-31T10:29:08.572Z,12.90
2023-03-31T10:30:08.583Z,12.87
2023-03-31T10:31:08.994Z,12.93
2023-03-31T10:32:08.603Z,13.01
2023-03-31T10:33:21.433Z,13.13
2023-03-31T10:34:08.631Z,13.31
2023-03-31T10:35:08.658Z,13.50
2023-03-31T10:36:08.758Z,13.65
2023-03-31T10:37:08.680Z,13.72
2023-03-31T10:38:08.708Z,13.71
2023-03-31T10:39:08.702Z,13.63
2023-03-31T10:40:08.717Z,13.68
2023-03-31T10:41:09.059Z,13.83
2023-03-31T10:42:08.746Z,13.96
2023-03-31T10:43:08.771Z,14.08
2023-03-31T10:44:09.714Z,14.05
2023-03-31T10:45:08.795Z,14.07
2023-03-31T10:46:08.860Z,13.97
2023-03-31T10:47:08.870Z,13.93
2023-03-31T10:48:08.860Z,13.95
2023-03-31T10:49:08.856Z,13.97
2023-03-31T10:50:08.879Z,14.05
2023-03-31T10:51:09.249Z,14.14
2023-03-31T10:52:08.898Z,14.20
2023-03-31T10:53:08.915Z,14.23
2023-03-31T10:54:08.926Z,14.20
2023-03-31T10:55:08.947Z,14.17
2023-03-31T10:56:08.980Z,14.14
2023-03-31T10:57:09.001Z,14.05
2023-03-31T10:58:08.989Z,13.99
2023-03-31T10:59:09.000Z,14.05
2023-03-31T11:00:09.014Z,14.04
2023-03-31T11:01:09.063Z,13.97
2023-03-31T11:02:09.119Z,13.95
2023-03-31T11:03:09.165Z,13.93
2023-03-31T11:04:09.072Z,13.86
2023-03-31T11:05:09.095Z,13.85
2023-03-31T11:06:09.133Z,13.89
2023-03-31T11:07:09.124Z,13.89
2023-03-31T11:08:09.156Z,13.87
2023-03-31T11:09:09.165Z,13.87
2023-03-31T11:10:09.169Z,13.79
2023-03-31T11:11:09.313Z,13.79
2023-03-31T11:12:09.196Z,13.89
2023-03-31T11:13:09.212Z,13.92
2023-03-31T11:14:09.238Z,13.92
2023-03-31T11:15:09.272Z,13.93
2023-03-31T11:16:09.354Z,13.96
2023-03-31T11:17:09.325Z,14.00
2023-03-31T11:18:09.386Z,13.95
2023-03-31T11:19:09.315Z,13.93
2023-03-31T11:20:09.317Z,13.97
2023-03-31T11:21:09.481Z,13.99
2023-03-31T11:22:09.343Z,13.93
2023-03-31T11:23:09.362Z,13.86
2023-03-31T11:24:09.375Z,13.90
2023-03-31T11:25:09.405Z,13.92
2023-03-31T11:26:09.450Z,13.96
2023-03-31T11:27:09.446Z,14.04
2023-03-31T11:28:09.666Z,14.10
2023-03-31T11:29:09.454Z,14.20
2023-03-31T11:30:09.464Z,14.20
2023-03-31T11:31:09.518Z,14.12
2023-03-31T11:32:09.686Z,14.11
2023-03-31T11:33:09.549Z,14.20
2023-03-31T11:34:09.534Z,14.28
2023-03-31T11:35:09.540Z,14.37
2023-03-31T11:36:09.626Z,14.47
2023-03-31T11:37:09.586Z,14.59
2023-03-31T11:38:09.580Z,14.68
2023-03-31T11:39:09.630Z,14.78
2023-03-31T11:40:09.609Z,14.84
2023-03-31T11:41:09.646Z,14.94
2023-03-31T11:42:09.655Z,15.04
2023-03-31T11:43:09.654Z,15.15
2023-03-31T11:44:09.670Z,15.28
2023-03-31T11:45:09.699Z,15.42
2023-03-31T11:46:09.985Z,15.57
2023-03-31T11:47:09.726Z,15.72
2023-03-31T11:48:09.796Z,15.83
2023-03-31T11:49:09.755Z,15.98
2023-03-31T11:50:09.765Z,15.98
2023-03-31T11:51:09.800Z,15.97
2023-03-31T11:52:09.785Z,15.79
2023-03-31T11:53:09.814Z,15.61
2023-03-31T11:54:09.818Z,15.39
2023-03-31T11:55:09.842Z,15.31
2023-03-31T11:56:09.902Z,15.33
2023-03-31T11:57:09.889Z,15.33
2023-03-31T11:58:09.897Z,15.28
2023-03-31T11:59:09.910Z,15.11
2023-03-31T12:00:09.926Z,14.99
2023-03-31T12:01:09.970Z,14.91
2023-03-31T12:02:09.939Z,14.85
2023-03-31T12:03:10.015Z,14.82
2023-03-31T12:04:10.074Z,14.85
2023-03-31T12:05:09.981Z,14.91
2023-03-31T12:06:10.450Z,14.91
2023-03-31T12:07:10.008Z,15.02
2023-03-31T12:08:10.016Z,15.04
2023-03-31T12:09:10.040Z,15.00
2023-03-31T12:10:10.047Z,14.96
2023-03-31T12:11:10.088Z,14.96
2023-03-31T12:12:10.079Z,14.92
2023-03-31T12:13:10.100Z,14.92
2023-03-31T12:14:10.108Z,14.96
2023-03-31T12:15:10.121Z,14.94
2023-03-31T12:16:10.596Z,14.94
2023-03-31T12:17:10.159Z,14.99
2023-03-31T12:18:10.287Z,15.17
2023-03-31T12:19:10.190Z,15.27
2023-03-31T12:20:10.199Z,15.27
2023-03-31T12:21:10.250Z,15.35
2023-03-31T12:22:10.231Z,15.29
2023-03-31T12:23:10.270Z,15.25
2023-03-31T12:24:10.252Z,15.22
2023-03-31T12:25:10.287Z,15.15
2023-03-31T12:26:10.318Z,15.07
2023-03-31T12:27:10.305Z,15.07
2023-03-31T12:28:10.313Z,15.11
2023-03-31T12:29:10.335Z,15.09
2023-03-31T12:30:10.350Z,15.03
2023-03-31T12:31:10.401Z,15.02
2023-03-31T12:32:10.372Z,15.07
2023-03-31T12:33:10.412Z,15.11
2023-03-31T12:34:10.410Z,15.09
2023-03-31T12:35:10.432Z,15.03
2023-03-31T12:36:10.502Z,14.97
2023-03-31T12:37:10.452Z,14.97
2023-03-31T12:38:10.527Z,14.89
2023-03-31T12:39:10.490Z,14.84
2023-03-31T12:40:10.501Z,14.72
2023-03-31T12:41:10.539Z,14.60
2023-03-31T12:42:10.530Z,14.53
2023-03-31T12:43:10.543Z,14.43
2023-03-31T12:44:10.560Z,14.30
2023-03-31T12:45:10.576Z,14.23
2023-03-31T12:46:10.628Z,14.23
2023-03-31T12:47:10.625Z,14.18
2023-03-31T12:48:10.609Z,14.10
2023-03-31T12:49:10.626Z,14.08
2023-03-31T12:50:10.693Z,14.00
2023-03-31T12:51:10.677Z,13.70
2023-03-31T12:52:10.672Z,13.19
2023-03-31T12:53:10.697Z,12.65
2023-03-31T12:54:10.710Z,12.22
2023-03-31T12:55:10.724Z,11.97
2023-03-31T12:56:10.762Z,11.86
2023-03-31T12:57:10.798Z,11.72
2023-03-31T12:58:10.765Z,11.73
2023-03-31T12:59:10.788Z,11.78
2023-03-31T13:00:10.855Z,11.83
2023-03-31T13:01:11.293Z,11.78
2023-03-31T13:02:10.852Z,11.83
2023-03-31T13:03:10.927Z,11.86
2023-03-31T13:04:10.863Z,11.86
2023-03-31T13:05:10.880Z,11.83
2023-03-31T13:06:10.909Z,11.91
2023-03-31T13:07:25.014Z,12.00
2023-03-31T13:08:10.932Z,12.09
2023-03-31T13:09:10.945Z,12.17
2023-03-31T13:10:12.579Z,12.31